Time;durP1;ratioP1;P1;durP2;ratioP2;P2;SDS_P1;SDS_P2;PMS_P1;PMS_P2;Temp;Humidity;BMP_temperature;BMP_pressure;BME280_temperature;BME280_humidity;BME280_pressure;Samples;Min_cycle;Max_cycle;Signal;HPM_P1;HPM_P2
2023/06/07 00:00:17;;;;;;;2.83;2.63;;;20.80;93.30;;;;;;5009448;28;20690;-77
2023/06/07 00:02:44;;;;;;;5.80;3.17;;;20.80;93.20;;;;;;4999859;28;20226;-77
2023/06/07 00:05:13;;;;;;;3.03;2.80;;;20.80;93.20;;;;;;4990326;28;20644;-77
2023/06/07 00:07:40;;;;;;;5.95;3.25;;;20.80;93.10;;;;;;4989819;28;20317;-77
2023/06/07 00:10:08;;;;;;;2.85;2.65;;;20.80;93.10;;;;;;4989605;28;20217;-77
2023/06/07 00:12:35;;;;;;;3.65;3.13;;;20.80;93.00;;;;;;4989323;28;20508;-77
2023/06/07 00:15:02;;;;;;;3.42;2.92;;;20.70;93.00;;;;;;4989542;28;20249;-77
2023/06/07 00:17:30;;;;;;;3.67;2.70;;;20.70;93.10;;;;;;4989385;28;20233;-78
2023/06/07 00:19:57;;;;;;;3.60;2.83;;;20.80;93.00;;;;;;4989722;28;20214;-76
2023/06/07 00:22:25;;;;;;;2.88;2.67;;;20.70;93.00;;;;;;4989065;28;20269;-78
2023/06/07 00:24:52;;;;;;;3.17;2.95;;;20.70;93.10;;;;;;4996157;28;20260;-77
2023/06/07 00:27:19;;;;;;;3.38;2.90;;;20.70;93.20;;;;;;5008739;28;20209;-77
2023/06/07 00:29:46;;;;;;;4.00;2.70;;;20.70;93.20;;;;;;5008744;28;20290;-77
2023/06/07 00:32:13;;;;;;;3.53;3.00;;;20.70;93.10;;;;;;5000387;28;20242;-77
2023/06/07 00:34:41;;;;;;;2.75;2.55;;;20.70;93.00;;;;;;4989601;28;20214;-75
2023/06/07 00:37:08;;;;;;;3.03;2.83;;;20.80;93.10;;;;;;4989246;28;20240;-76
2023/06/07 00:39:35;;;;;;;3.33;2.85;;;20.70;93.00;;;;;;4989534;28;20284;-76
2023/06/07 00:42:02;;;;;;;2.55;2.40;;;20.70;93.30;;;;;;4989200;28;20341;-75
2023/06/07 00:44:29;;;;;;;3.60;2.90;;;20.60;93.00;;;;;;4988724;28;20207;-79
2023/06/07 00:46:56;;;;;;;3.00;2.80;;;20.60;93.00;;;;;;4988554;28;20614;-78
2023/06/07 00:49:23;;;;;;;4.38;2.72;;;20.60;93.10;;;;;;4989093;28;20582;-80
2023/06/07 00:51:52;;;;;;;4.00;3.00;;;20.60;93.10;;;;;;4988525;28;20241;-79
2023/06/07 00:54:20;;;;;;;2.75;2.58;;;20.60;93.10;;;;;;4988923;28;20254;-79
2023/06/07 00:56:49;;;;;;;3.70;2.95;;;20.60;93.10;;;;;;4988858;28;20328;-79
2023/06/07 00:59:17;;;;;;;2.95;2.63;;;20.60;93.20;;;;;;4999169;28;20214;-75
2023/06/07 01:01:47;;;;;;;3.47;2.92;;;20.50;93.10;;;;;;4987797;28;20246;-75
2023/06/07 01:04:18;;;;;;;5.13;3.20;;;20.50;93.00;;;;;;4988285;28;20228;-75
2023/06/07 01:06:44;;;;;;;2.88;2.67;;;20.50;93.00;;;;;;4988725;28;20205;-80
2023/06/07 01:09:13;;;;;;;3.42;2.60;;;20.50;93.10;;;;;;4987978;28;20206;-78
2023/06/07 01:11:43;;;;;;;3.20;2.90;;;20.50;93.10;;;;;;4988627;28;20229;-77
2023/06/07 01:14:11;;;;;;;3.50;3.22;;;20.40;93.10;;;;;;4988581;28;20566;-77
2023/06/07 01:16:39;;;;;;;3.15;2.83;;;20.40;93.10;;;;;;4988100;28;20245;-77
2023/06/07 01:19:08;;;;;;;3.00;2.67;;;20.40;93.50;;;;;;4988152;28;20637;-77
2023/06/07 01:21:38;;;;;;;3.15;2.85;;;20.40;93.30;;;;;;4988111;28;20668;-76
2023/06/07 01:24:09;;;;;;;2.85;2.65;;;20.40;93.30;;;;;;4988097;28;20305;-77
2023/06/07 01:26:37;;;;;;;3.30;3.00;;;20.40;93.30;;;;;;4988252;28;20202;-77
2023/06/07 01:29:07;;;;;;;4.25;3.17;;;20.40;93.30;;;;;;4987854;28;20217;-77
2023/06/07 01:31:36;;;;;;;2.70;2.50;;;20.40;93.40;;;;;;4987936;28;20210;-77
2023/06/07 01:34:04;;;;;;;4.82;2.90;;;20.40;93.40;;;;;;4986382;28;20292;-77
2023/06/07 01:36:32;;;;;;;4.20;3.25;;;20.30;93.40;;;;;;4988119;28;20207;-77
2023/06/07 01:39:00;;;;;;;2.97;2.75;;;20.30;93.40;;;;;;4987623;28;20980;-76
2023/06/07 01:41:30;;;;;;;3.97;2.60;;;20.30;93.30;;;;;;4987833;28;20210;-76
2023/06/07 01:43:58;;;;;;;3.00;2.80;;;20.30;93.20;;;;;;4987277;28;20332;-76
2023/06/07 01:46:26;;;;;;;6.90;3.22;;;20.30;93.20;;;;;;4987407;28;20249;-78
2023/06/07 01:48:53;;;;;;;3.10;2.90;;;20.30;93.10;;;;;;4987479;28;20249;-77
2023/06/07 01:51:20;;;;;;;3.45;3.15;;;20.30;93.00;;;;;;4987837;28;20210;-77
2023/06/07 01:53:50;;;;;;;3.65;3.45;;;20.00;92.70;;;;;;4987826;28;20633;-78
2023/06/07 01:56:25;;;;;;;3.28;3.08;;;20.00;92.90;;;;;;4991503;28;20202;-77
2023/06/07 01:59:02;;;;;;;6.50;3.10;;;20.10;92.80;;;;;;4987175;28;20201;-77
2023/06/07 02:01:35;;;;;;;4.53;2.80;;;20.10;92.70;;;;;;4987568;28;20197;-77
2023/06/07 02:04:05;;;;;;;3.70;3.40;;;20.10;92.60;;;;;;4987734;28;20232;-77
2023/06/07 02:06:37;;;;;;;3.33;3.03;;;20.20;92.50;;;;;;4987437;28;20309;-77
2023/06/07 02:09:10;;;;;;;3.20;2.90;;;20.10;92.30;;;;;;4987288;28;20205;-76
2023/06/07 02:11:39;;;;;;;3.03;2.83;;;20.10;92.40;;;;;;4986409;28;20234;-75
2023/06/07 02:14:08;;;;;;;3.42;3.13;;;20.10;92.30;;;;;;4987196;28;20194;-76
2023/06/07 02:16:36;;;;;;;3.43;3.03;;;20.10;92.20;;;;;;4986471;28;20212;-79
2023/06/07 02:19:06;;;;;;;3.30;3.07;;;20.00;92.30;;;;;;4987170;28;20269;-75
2023/06/07 02:21:34;;;;;;;3.47;3.17;;;20.00;92.30;;;;;;4986116;28;20210;-75
2023/06/07 02:24:01;;;;;;;3.93;3.40;;;20.00;92.20;;;;;;4985787;28;20241;-76
2023/06/07 02:26:29;;;;;;;3.40;3.20;;;19.90;92.20;;;;;;4979090;28;20301;-75
2023/06/07 02:28:56;;;;;;;3.97;3.17;;;19.90;92.20;;;;;;4984760;28;20213;-75
2023/06/07 02:31:25;;;;;;;3.72;2.83;;;19.90;92.10;;;;;;4985285;28;20210;-76
2023/06/07 02:33:52;;;;;;;3.13;2.93;;;19.90;92.10;;;;;;4985245;28;20216;-75
2023/06/07 02:36:24;;;;;;;3.50;3.05;;;19.90;91.80;;;;;;4984742;28;20294;-75
2023/06/07 02:38:51;;;;;;;3.20;3.00;;;20.00;91.90;;;;;;4984744;28;20198;-75
2023/06/07 02:41:18;;;;;;;3.53;3.27;;;19.90;91.80;;;;;;4984795;28;20230;-75
2023/06/07 02:43:45;;;;;;;3.70;2.97;;;19.90;91.80;;;;;;4984556;28;20240;-75
2023/06/07 02:46:12;;;;;;;3.17;2.88;;;20.00;91.80;;;;;;4984381;28;20305;-74
2023/06/07 02:48:41;;;;;;;3.30;3.05;;;20.00;91.80;;;;;;4984802;28;20743;-75
2023/06/07 02:51:08;;;;;;;4.60;3.53;;;20.00;91.70;;;;;;4987653;28;20414;-75
2023/06/07 02:53:35;;;;;;;3.40;2.90;;;20.00;91.60;;;;;;4984658;28;20245;-75
2023/06/07 02:56:02;;;;;;;4.07;2.63;;;20.00;91.50;;;;;;4985975;28;20301;-75
2023/06/07 02:58:29;;;;;;;3.40;3.20;;;20.00;91.50;;;;;;4984843;28;20771;-75
2023/06/07 03:00:56;;;;;;;4.65;3.13;;;20.00;91.50;;;;;;4985038;28;20740;-76
2023/06/07 03:03:24;;;;;;;3.42;3.13;;;20.00;91.40;;;;;;4984965;28;20234;-75
2023/06/07 03:05:52;;;;;;;3.17;2.65;;;20.00;91.70;;;;;;4985762;28;20213;-75
2023/06/07 03:08:20;;;;;;;3.40;3.10;;;20.00;91.40;;;;;;4979555;28;20301;-75
2023/06/07 03:10:46;;;;;;;3.45;2.80;;;19.90;91.40;;;;;;4985111;28;20652;-75
2023/06/07 03:13:13;;;;;;;7.60;3.03;;;20.00;91.50;;;;;;4985696;28;20585;-75
2023/06/07 03:15:40;;;;;;;3.67;3.28;;;19.90;91.40;;;;;;4985640;28;20234;-75
2023/06/07 03:18:08;;;;;;;4.10;3.30;;;20.00;91.40;;;;;;4985530;28;20728;-75
2023/06/07 03:20:35;;;;;;;4.17;3.23;;;19.90;91.30;;;;;;4986041;28;20626;-75
2023/06/07 03:23:04;;;;;;;4.33;3.50;;;19.90;91.30;;;;;;4986408;28;20665;-74
2023/06/07 03:25:31;;;;;;;3.10;2.90;;;19.90;91.40;;;;;;4986214;28;20210;-75
2023/06/07 03:27:58;;;;;;;4.67;3.43;;;19.90;91.30;;;;;;4986356;28;20723;-76
2023/06/07 03:30:25;;;;;;;3.75;3.30;;;20.00;91.40;;;;;;4985997;28;20582;-76
2023/06/07 03:32:52;;;;;;;4.53;3.20;;;20.00;91.40;;;;;;4986187;28;20309;-75
2023/06/07 03:35:19;;;;;;;5.57;3.63;;;20.00;91.40;;;;;;4986509;28;20217;-76
2023/06/07 03:37:46;;;;;;;4.90;3.95;;;20.00;91.40;;;;;;4986007;28;20293;-75
2023/06/07 03:40:15;;;;;;;3.60;3.40;;;20.00;91.50;;;;;;4985860;28;20740;-76
2023/06/07 03:42:42;;;;;;;4.40;3.50;;;19.90;91.50;;;;;;4985752;28;20792;-76
2023/06/07 03:45:09;;;;;;;3.83;3.53;;;19.90;91.60;;;;;;4985787;28;20756;-76
2023/06/07 03:47:37;;;;;;;8.77;3.75;;;19.90;91.50;;;;;;4987971;28;20293;-76
2023/06/07 03:50:05;;;;;;;4.90;3.72;;;19.90;91.70;;;;;;4985789;28;20207;-75
2023/06/07 03:52:32;;;;;;;3.53;3.33;;;19.90;91.80;;;;;;4985613;28;20249;-76
2023/06/07 03:54:59;;;;;;;4.63;3.42;;;19.90;91.80;;;;;;4993594;28;20224;-75
2023/06/07 03:57:27;;;;;;;4.40;3.60;;;20.00;92.00;;;;;;5006673;28;20209;-76
2023/06/07 03:59:54;;;;;;;4.45;3.38;;;20.00;92.00;;;;;;5009133;28;20298;-76
2023/06/07 04:02:21;;;;;;;4.68;3.20;;;20.00;92.00;;;;;;5009089;28;20934;-75
2023/06/07 04:04:49;;;;;;;3.33;3.08;;;20.00;92.10;;;;;;5008819;28;20655;-76
2023/06/07 04:07:17;;;;;;;5.75;3.55;;;20.00;92.20;;;;;;5009012;28;20210;-76
2023/06/07 04:09:44;;;;;;;4.13;3.40;;;20.10;92.20;;;;;;5000187;28;20210;-76
2023/06/07 04:12:11;;;;;;;3.33;3.03;;;20.10;92.00;;;;;;4989358;28;20214;-76
2023/06/07 04:14:39;;;;;;;4.43;3.38;;;20.20;91.90;;;;;;4989019;28;20923;-76
2023/06/07 04:17:06;;;;;;;2.95;2.75;;;20.20;91.70;;;;;;4989192;28;20692;-76
2023/06/07 04:19:33;;;;;;;3.20;2.80;;;20.20;91.50;;;;;;4989265;28;20248;-75
2023/06/07 04:22:04;;;;;;;3.22;3.03;;;20.20;91.40;;;;;;4989027;28;20292;-75
2023/06/07 04:24:31;;;;;;;3.97;3.50;;;20.20;91.40;;;;;;4992468;28;20222;-75
2023/06/07 04:26:58;;;;;;;25.03;4.67;;;20.20;91.40;;;;;;5009019;28;20213;-76
2023/06/07 04:29:26;;;;;;;9.35;3.92;;;20.20;91.40;;;;;;5008369;28;20665;-75
2023/06/07 04:31:56;;;;;;;3.70;3.40;;;20.20;91.40;;;;;;5008312;28;20214;-75
2023/06/07 04:34:24;;;;;;;4.55;2.90;;;20.20;91.50;;;;;;4990543;28;20210;-75
2023/06/07 04:36:50;;;;;;;7.25;3.40;;;20.30;91.60;;;;;;4988549;28;20763;-76
2023/06/07 04:39:20;;;;;;;4.13;3.17;;;20.20;91.70;;;;;;4988919;28;20341;-75
2023/06/07 04:41:48;;;;;;;3.53;3.33;;;20.20;91.70;;;;;;4988881;28;20244;-75
2023/06/07 04:44:28;;;;;;;3.75;3.45;;;20.20;91.90;;;;;;4999428;28;20754;-76
2023/06/07 04:46:57;;;;;;;5.15;3.17;;;20.30;91.90;;;;;;4988779;28;20194;-75
2023/06/07 04:49:25;;;;;;;3.95;3.63;;;20.30;92.00;;;;;;4988933;28;20206;-75
2023/06/07 04:51:52;;;;;;;6.15;3.45;;;20.30;92.00;;;;;;4988144;28;20246;-75
2023/06/07 04:54:19;;;;;;;6.05;4.03;;;20.30;92.10;;;;;;4988129;28;20240;-75
2023/06/07 04:56:47;;;;;;;3.30;3.00;;;20.30;92.10;;;;;;4988115;28;20312;-75
2023/06/07 04:59:14;;;;;;;5.93;3.17;;;20.30;92.20;;;;;;4988584;28;20202;-75
2023/06/07 05:01:43;;;;;;;3.40;3.03;;;20.30;92.20;;;;;;4988090;28;20717;-75
2023/06/07 05:04:11;;;;;;;4.75;2.95;;;20.40;92.50;;;;;;4987073;28;20770;-75
2023/06/07 05:06:38;;;;;;;5.30;3.60;;;20.40;92.10;;;;;;4987698;28;20217;-75
2023/06/07 05:09:05;;;;;;;3.72;3.28;;;20.40;92.40;;;;;;4987806;28;20229;-77
2023/06/07 05:11:32;;;;;;;3.67;3.38;;;20.40;92.00;;;;;;4987807;28;20210;-75
2023/06/07 05:13:59;;;;;;;4.28;3.10;;;20.40;91.90;;;;;;4987941;28;20242;-76
2023/06/07 05:16:26;;;;;;;20.63;4.28;;;20.40;92.00;;;;;;4988160;28;20210;-75
2023/06/07 05:18:53;;;;;;;4.57;3.35;;;20.50;92.10;;;;;;4987567;28;20216;-75
2023/06/07 05:21:21;;;;;;;4.68;3.55;;;20.50;92.10;;;;;;4988260;28;20212;-76
2023/06/07 05:23:48;;;;;;;6.20;3.95;;;20.50;92.10;;;;;;4988023;28;21023;-76
2023/06/07 05:26:15;;;;;;;3.30;2.95;;;20.50;92.10;;;;;;4988154;28;20301;-76
2023/06/07 05:28:43;;;;;;;4.20;3.80;;;20.50;92.10;;;;;;4985963;28;20206;-75
2023/06/07 05:31:11;;;;;;;3.33;3.03;;;20.60;91.90;;;;;;4968468;28;20210;-75
2023/06/07 05:33:39;;;;;;;4.50;3.03;;;20.60;91.90;;;;;;4968142;28;20334;-76
2023/06/07 05:36:06;;;;;;;3.60;3.30;;;20.50;91.80;;;;;;4968307;28;20238;-75
2023/06/07 05:38:35;;;;;;;5.28;3.03;;;20.60;91.80;;;;;;4971234;28;20202;-75
2023/06/07 05:41:02;;;;;;;7.57;3.30;;;20.60;91.70;;;;;;4987555;28;20259;-75
2023/06/07 05:43:29;;;;;;;4.65;3.25;;;20.70;91.70;;;;;;4987292;28;20308;-75
2023/06/07 05:45:56;;;;;;;3.97;3.53;;;20.70;91.50;;;;;;4987249;28;20246;-75
2023/06/07 05:48:23;;;;;;;6.30;4.18;;;20.80;91.50;;;;;;4987244;28;20716;-76
2023/06/07 05:50:49;;;;;;;4.90;3.50;;;20.80;91.50;;;;;;4987284;28;20777;-75
2023/06/07 05:53:17;;;;;;;8.02;4.50;;;20.80;91.50;;;;;;4987121;28;20233;-75
2023/06/07 05:55:47;;;;;;;5.20;3.47;;;20.90;91.70;;;;;;4986984;28;20246;-76
2023/06/07 05:58:15;;;;;;;5.63;3.42;;;20.90;92.30;;;;;;4987376;28;20198;-76
2023/06/07 06:00:44;;;;;;;6.47;3.28;;;20.90;92.00;;;;;;4986846;28;20214;-75
2023/06/07 06:03:11;;;;;;;4.53;4.07;;;20.90;91.40;;;;;;4987365;28;20241;-75
2023/06/07 06:05:38;;;;;;;5.35;3.58;;;20.90;91.40;;;;;;4987209;28;20253;-75
2023/06/07 06:08:05;;;;;;;10.00;3.95;;;20.90;91.50;;;;;;4987219;28;20909;-75
2023/06/07 06:10:32;;;;;;;10.27;3.90;;;20.90;91.30;;;;;;4986933;28;20708;-75
2023/06/07 06:13:00;;;;;;;5.07;3.90;;;21.00;91.10;;;;;;4987396;28;20309;-76
2023/06/07 06:15:28;;;;;;;4.57;3.60;;;21.00;90.80;;;;;;4986970;28;20225;-76
2023/06/07 06:17:55;;;;;;;6.78;3.65;;;21.10;90.90;;;;;;4987162;28;20210;-75
2023/06/07 06:20:22;;;;;;;5.47;3.80;;;21.10;91.00;;;;;;4986104;28;20206;-75
2023/06/07 06:22:49;;;;;;;9.93;4.00;;;21.10;90.80;;;;;;4986522;28;20213;-75
2023/06/07 06:25:16;;;;;;;14.30;4.25;;;21.10;90.90;;;;;;4992215;28;20327;-76
2023/06/07 06:27:43;;;;;;;7.93;4.10;;;21.20;90.60;;;;;;4986519;28;20694;-75
2023/06/07 06:30:12;;;;;;;6.75;3.60;;;21.20;90.30;;;;;;4986640;28;20220;-75
2023/06/07 06:32:40;;;;;;;56.97;8.50;;;21.20;90.40;;;;;;4986674;28;20293;-75
2023/06/07 06:35:08;;;;;;;33.58;6.32;;;21.30;90.50;;;;;;4986511;28;20268;-75
2023/06/07 06:37:35;;;;;;;15.77;4.85;;;21.30;90.40;;;;;;4986126;28;20214;-75
2023/06/07 06:40:04;;;;;;;25.85;5.85;;;21.40;90.10;;;;;;4986420;28;20693;-75
2023/06/07 06:42:30;;;;;;;13.48;3.90;;;21.40;90.10;;;;;;4986434;28;20267;-75
2023/06/07 06:44:57;;;;;;;7.50;3.47;;;21.40;90.10;;;;;;4986432;28;20340;-75
2023/06/07 06:47:26;;;;;;;5.18;3.50;;;21.50;89.80;;;;;;4986864;28;20302;-75
2023/06/07 06:49:54;;;;;;;8.15;3.45;;;21.50;89.20;;;;;;4986791;28;20214;-75
2023/06/07 06:52:21;;;;;;;6.07;3.95;;;21.50;87.40;;;;;;4986381;28;20775;-75
2023/06/07 06:54:47;;;;;;;5.78;3.70;;;21.50;87.30;;;;;;4986328;28;20649;-75
2023/06/07 06:57:14;;;;;;;5.47;3.25;;;21.50;86.80;;;;;;4986984;28;20577;-75
2023/06/07 06:59:41;;;;;;;4.05;3.63;;;21.50;87.30;;;;;;4986317;28;20687;-75
2023/06/07 07:02:08;;;;;;;7.95;3.42;;;21.60;87.20;;;;;;4986841;28;20332;-75
2023/06/07 07:04:37;;;;;;;5.88;3.70;;;21.60;87.60;;;;;;4986702;28;20315;-75
2023/06/07 07:07:04;;;;;;;4.80;3.65;;;21.60;87.30;;;;;;4986604;28;20293;-75
2023/06/07 07:09:31;;;;;;;10.30;3.63;;;21.60;86.30;;;;;;4986169;28;20249;-75
2023/06/07 07:11:58;;;;;;;7.20;4.05;;;21.70;87.50;;;;;;4985984;28;20695;-75
2023/06/07 07:14:25;;;;;;;6.20;3.53;;;21.80;87.40;;;;;;4986134;28;20210;-75
2023/06/07 07:16:52;;;;;;;15.75;3.92;;;21.80;87.70;;;;;;4985926;28;20561;-76
2023/06/07 07:19:18;;;;;;;8.73;3.83;;;21.90;87.40;;;;;;4986274;28;20229;-75
2023/06/07 07:21:47;;;;;;;3.70;3.30;;;21.90;87.50;;;;;;4985761;28;20246;-76
2023/06/07 07:24:13;;;;;;;6.00;3.60;;;21.90;85.50;;;;;;4985787;28;20302;-75
2023/06/07 07:26:40;;;;;;;7.40;4.15;;;22.00;86.30;;;;;;4985536;28;20228;-75
2023/06/07 07:29:07;;;;;;;5.57;3.78;;;22.00;85.90;;;;;;4985617;28;20221;-75
2023/06/07 07:31:34;;;;;;;4.03;3.17;;;22.10;86.30;;;;;;4993178;28;20220;-75
2023/06/07 07:34:02;;;;;;;4.05;3.53;;;22.10;86.50;;;;;;4993099;28;20300;-75
2023/06/07 07:36:29;;;;;;;4.28;3.30;;;22.20;87.40;;;;;;4989670;28;20297;-76
2023/06/07 07:38:59;;;;;;;3.63;3.08;;;22.30;85.60;;;;;;4990232;28;20289;-75
2023/06/07 07:41:26;;;;;;;3.65;2.72;;;22.40;85.50;;;;;;4989722;28;20238;-75
2023/06/07 07:43:53;;;;;;;7.10;3.63;;;22.50;85.90;;;;;;5003118;28;20205;-75
2023/06/07 07:46:20;;;;;;;5.10;3.05;;;22.50;86.00;;;;;;5008967;28;20287;-75
2023/06/07 07:48:46;;;;;;;4.93;3.15;;;22.60;84.90;;;;;;5009374;28;20245;-75
2023/06/07 07:51:13;;;;;;;3.28;2.85;;;22.70;83.90;;;;;;5009012;28;20310;-75
2023/06/07 07:53:41;;;;;;;11.30;3.67;;;22.80;84.00;;;;;;5008551;28;20718;-75
2023/06/07 07:56:10;;;;;;;10.50;3.95;;;22.80;83.40;;;;;;4992039;28;20210;-75
2023/06/07 07:58:37;;;;;;;5.13;3.50;;;22.80;83.70;;;;;;4989741;28;20214;-75
2023/06/07 08:01:04;;;;;;;4.57;2.92;;;22.90;83.80;;;;;;4989396;28;20758;-75
2023/06/07 08:03:31;;;;;;;6.18;3.53;;;22.80;83.50;;;;;;4989586;28;20298;-75
2023/06/07 08:05:59;;;;;;;3.30;3.00;;;22.90;81.60;;;;;;4991911;28;20261;-75
2023/06/07 08:08:26;;;;;;;6.47;3.13;;;22.90;82.50;;;;;;5008990;28;20742;-75
2023/06/07 08:10:53;;;;;;;4.03;3.10;;;22.90;82.60;;;;;;5008460;28;20205;-75
2023/06/07 08:13:21;;;;;;;4.70;3.47;;;23.00;83.70;;;;;;5008987;28;20217;-76
2023/06/07 08:15:48;;;;;;;5.00;3.00;;;23.00;84.30;;;;;;5008288;28;20272;-75
2023/06/07 08:18:17;;;;;;;4.18;3.10;;;23.00;84.10;;;;;;5000383;28;20297;-75
2023/06/07 08:20:44;;;;;;;5.03;3.60;;;23.00;83.60;;;;;;4988765;28;20296;-76
2023/06/07 08:23:11;;;;;;;4.40;3.50;;;23.00;84.20;;;;;;4988962;28;20650;-75
2023/06/07 08:25:38;;;;;;;5.80;3.25;;;23.10;85.00;;;;;;5001445;28;20340;-75
2023/06/07 08:28:05;;;;;;;3.67;3.38;;;23.20;83.20;;;;;;5008196;28;20315;-76
2023/06/07 08:30:34;;;;;;;23.30;5.10;;;23.20;83.40;;;;;;4989315;28;20209;-75
2023/06/07 08:33:00;;;;;;;13.90;3.42;;;23.20;83.30;;;;;;4988567;28;20761;-75
2023/06/07 08:35:27;;;;;;;5.28;3.15;;;23.30;83.20;;;;;;4989018;28;20213;-75
2023/06/07 08:37:54;;;;;;;6.57;3.17;;;23.40;82.50;;;;;;4988952;28;20293;-75
2023/06/07 08:40:22;;;;;;;18.13;4.57;;;23.40;82.50;;;;;;4988522;28;20249;-75
2023/06/07 08:42:49;;;;;;;5.97;3.30;;;23.40;82.20;;;;;;4993242;28;20289;-75
2023/06/07 08:45:16;;;;;;;7.07;3.13;;;23.50;82.50;;;;;;5008218;28;20244;-75
2023/06/07 08:47:45;;;;;;;7.47;3.45;;;23.50;81.40;;;;;;5008286;28;20220;-75
2023/06/07 08:50:13;;;;;;;4.47;3.28;;;23.60;82.10;;;;;;5008057;28;20755;-75
2023/06/07 08:52:42;;;;;;;6.55;3.08;;;23.70;81.30;;;;;;5007794;28;20731;-75
2023/06/07 08:55:11;;;;;;;3.88;3.20;;;23.70;80.90;;;;;;5008112;28;20225;-75
2023/06/07 08:57:39;;;;;;;4.45;3.55;;;23.80;80.20;;;;;;5008100;28;20214;-75
2023/06/07 09:00:08;;;;;;;4.07;3.30;;;23.90;80.80;;;;;;5008021;28;20694;-75
2023/06/07 09:02:38;;;;;;;3.58;2.88;;;24.00;81.10;;;;;;5002005;28;20194;-75
2023/06/07 09:05:06;;;;;;;3.40;3.10;;;24.00;81.50;;;;;;4988254;28;20345;-75
2023/06/07 09:07:35;;;;;;;21.27;3.95;;;24.00;82.10;;;;;;4988224;28;20304;-75
2023/06/07 09:10:02;;;;;;;5.95;3.20;;;24.10;82.20;;;;;;4988209;28;20300;-75
2023/06/07 09:12:29;;;;;;;6.18;3.13;;;24.20;81.70;;;;;;4987718;28;20583;-75
2023/06/07 09:14:57;;;;;;;9.93;3.75;;;24.30;81.30;;;;;;4975765;28;20210;-75
2023/06/07 09:17:24;;;;;;;7.18;3.08;;;24.40;80.60;;;;;;4968192;28;20662;-75
2023/06/07 09:19:51;;;;;;;3.13;2.83;;;24.50;79.80;;;;;;4968278;28;20219;-75
2023/06/07 09:22:25;;;;;;;3.22;3.03;;;24.60;79.60;;;;;;4968465;28;20210;-75
2023/06/07 09:24:52;;;;;;;10.27;3.22;;;24.60;80.10;;;;;;4993976;28;20220;-75
2023/06/07 09:27:29;;;;;;;5.13;3.40;;;24.70;80.50;;;;;;4987914;28;20298;-75
2023/06/07 09:30:03;;;;;;;11.82;4.32;;;24.70;79.90;;;;;;4987154;28;20200;-75
2023/06/07 09:32:37;;;;;;;3.65;3.30;;;24.80;80.20;;;;;;4987454;28;20280;-75
2023/06/07 09:35:14;;;;;;;7.15;2.90;;;24.80;79.50;;;;;;4987706;28;20202;-75
2023/06/07 09:37:43;;;;;;;3.72;3.05;;;24.90;79.00;;;;;;4987620;28;20205;-76
2023/06/07 09:40:11;;;;;;;3.30;3.00;;;25.00;79.00;;;;;;4987386;28;20309;-75
2023/06/07 09:42:37;;;;;;;10.77;3.50;;;25.00;80.30;;;;;;4990616;28;20532;-75
2023/06/07 09:45:15;;;;;;;3.80;2.78;;;25.10;80.00;;;;;;5006711;28;20235;-75
2023/06/07 09:47:43;;;;;;;3.55;3.25;;;25.10;79.20;;;;;;5006792;28;20216;-75
2023/06/07 09:50:13;;;;;;;6.65;3.15;;;25.10;80.10;;;;;;5006432;28;20244;-75
2023/06/07 09:52:40;;;;;;;4.90;3.00;;;25.20;80.70;;;;;;5006316;28;20719;-75
2023/06/07 09:55:24;;;;;;;3.65;3.25;;;25.30;80.00;;;;;;5005734;28;20326;-75
2023/06/07 09:57:51;;;;;;;7.93;3.00;;;25.40;79.60;;;;;;5006218;28;20236;-75
2023/06/07 10:00:20;;;;;;;6.68;3.10;;;25.50;78.50;;;;;;4988856;28;20249;-75
2023/06/07 10:02:47;;;;;;;3.95;3.30;;;25.60;79.10;;;;;;4986810;28;20248;-75
2023/06/07 10:05:16;;;;;;;5.20;2.97;;;25.70;78.10;;;;;;4987572;28;20240;-75
2023/06/07 10:07:44;;;;;;;3.15;2.83;;;25.80;78.10;;;;;;4986594;28;20214;-75
2023/06/07 10:10:15;;;;;;;14.75;4.03;;;25.90;79.10;;;;;;4986864;28;20986;-75
2023/06/07 10:12:43;;;;;;;6.03;3.17;;;25.90;79.00;;;;;;4987126;28;20202;-75
2023/06/07 10:15:11;;;;;;;9.70;3.17;;;26.10;77.90;;;;;;4986633;28;20217;-75
2023/06/07 10:17:49;;;;;;;11.35;3.30;;;26.30;77.50;;;;;;4986772;28;20230;-75
2023/06/07 10:20:24;;;;;;;7.40;2.83;;;26.40;77.10;;;;;;4986486;28;20649;-75
2023/06/07 10:22:55;;;;;;;3.22;2.63;;;26.50;77.50;;;;;;4983672;28;20214;-75
2023/06/07 10:25:25;;;;;;;11.65;3.22;;;26.50;75.40;;;;;;4988185;28;20856;-75
2023/06/07 10:28:01;;;;;;;47.72;6.35;;;26.70;74.10;;;;;;5006215;28;20189;-76
2023/06/07 10:30:33;;;;;;;4.78;2.75;;;26.90;73.10;;;;;;5005415;28;20730;-75
2023/06/07 10:33:00;;;;;;;3.17;2.88;;;27.00;72.10;;;;;;5006061;28;20206;-75
2023/06/07 10:35:27;;;;;;;5.38;2.67;;;27.20;72.60;;;;;;5005664;28;20337;-75
2023/06/07 10:37:55;;;;;;;19.38;4.68;;;27.30;71.00;;;;;;5005494;28;20642;-75
2023/06/07 10:40:25;;;;;;;7.90;3.25;;;27.20;71.90;;;;;;5005509;28;20965;-75
2023/06/07 10:42:55;;;;;;;12.10;3.20;;;27.20;73.30;;;;;;5005808;28;20198;-75
2023/06/07 10:45:22;;;;;;;6.35;3.10;;;27.10;73.30;;;;;;5005821;28;20237;-75
2023/06/07 10:47:49;;;;;;;5.38;3.40;;;27.10;72.70;;;;;;5006009;28;20648;-75
2023/06/07 10:50:48;;;;;;;5.10;3.30;;;27.30;73.30;;;;;;5006305;28;20209;-75
2023/06/07 10:53:14;;;;;;;3.10;2.90;;;27.50;72.70;;;;;;5005443;28;20356;-75
2023/06/07 10:55:44;;;;;;;5.55;3.20;;;27.80;72.10;;;;;;5005522;28;20749;-75
2023/06/07 10:58:27;;;;;;;6.65;2.83;;;27.90;72.70;;;;;;4999943;28;20234;-75
2023/06/07 11:00:56;;;;;;;4.28;2.88;;;27.90;72.50;;;;;;4985816;28;20206;-75
2023/06/07 11:03:43;;;;;;;4.38;3.17;;;28.00;70.60;;;;;;4986585;28;20214;-75
2023/06/07 11:06:11;;;;;;;3.42;2.80;;;28.10;70.10;;;;;;4987154;28;20225;-75
2023/06/07 11:08:38;;;;;;;5.13;3.38;;;28.20;69.20;;;;;;4989891;28;20209;-75
2023/06/07 11:11:51;;;;;;;6.10;3.10;;;28.20;68.60;;;;;;4990095;28;20704;-75
2023/06/07 11:14:19;;;;;;;3.28;2.97;;;28.40;69.30;;;;;;4989815;28;20276;-75
2023/06/07 11:16:46;;;;;;;4.40;2.72;;;28.60;68.90;;;;;;4998565;28;20313;-75
2023/06/07 11:19:16;;;;;;;3.28;2.92;;;28.70;68.60;;;;;;4991717;28;20300;-75
2023/06/07 11:22:06;;;;;;;4.05;2.97;;;28.80;69.50;;;;;;4989773;28;20202;-75
2023/06/07 11:24:36;;;;;;;2.72;2.53;;;28.90;67.20;;;;;;4993731;28;20217;-75
2023/06/07 11:27:03;;;;;;;3.10;2.90;;;28.90;67.50;;;;;;5009433;28;20299;-75
2023/06/07 11:29:32;;;;;;;3.13;2.70;;;29.00;66.40;;;;;;5009105;28;20213;-75
2023/06/07 11:32:00;;;;;;;7.45;3.17;;;29.10;66.90;;;;;;5009330;28;20555;-75
2023/06/07 11:34:30;;;;;;;4.53;3.03;;;29.20;68.00;;;;;;5009091;28;20224;-75
2023/06/07 11:37:11;;;;;;;3.35;2.88;;;29.30;68.20;;;;;;5009220;28;20615;-75
2023/06/07 11:39:38;;;;;;;5.55;2.85;;;29.30;67.00;;;;;;5009253;28;20563;-75
2023/06/07 11:42:07;;;;;;;4.63;3.33;;;29.20;67.30;;;;;;5009359;28;20352;-75
2023/06/07 11:44:35;;;;;;;2.95;2.70;;;29.20;68.30;;;;;;4990081;28;20214;-75
2023/06/07 11:47:07;;;;;;;3.75;3.10;;;29.20;67.10;;;;;;4989338;28;20338;-75
2023/06/07 11:49:38;;;;;;;3.35;2.88;;;29.00;65.20;;;;;;4989053;28;20297;-75
2023/06/07 11:52:06;;;;;;;4.90;3.40;;;29.20;67.00;;;;;;4989045;28;20295;-75
2023/06/07 11:54:33;;;;;;;3.15;2.90;;;29.30;68.00;;;;;;4984945;28;20275;-75
2023/06/07 11:57:01;;;;;;;3.13;2.92;;;29.40;67.30;;;;;;4969790;28;20210;-75
2023/06/07 11:59:29;;;;;;;4.60;3.00;;;29.40;67.00;;;;;;4969461;28;20658;-75
2023/06/07 12:01:58;;;;;;;6.78;2.90;;;29.50;68.40;;;;;;4969341;28;20214;-75
2023/06/07 12:04:25;;;;;;;4.60;2.97;;;29.70;68.10;;;;;;4986908;28;20202;-75
2023/06/07 12:06:52;;;;;;;4.20;3.03;;;29.60;66.50;;;;;;4988459;28;20232;-75
2023/06/07 12:09:19;;;;;;;3.63;2.70;;;29.50;67.80;;;;;;4989444;28;20210;-74
2023/06/07 12:11:47;;;;;;;3.28;2.55;;;29.50;68.50;;;;;;4988968;28;20301;-74
2023/06/07 12:14:30;;;;;;;63.67;6.35;;;29.80;68.10;;;;;;4988553;28;20673;-76
2023/06/07 12:17:01;;;;;;;6.57;3.00;;;30.20;67.90;;;;;;4988769;28;20202;-74
2023/06/07 12:19:28;;;;;;;3.17;2.80;;;30.40;66.30;;;;;;4988177;28;20209;-74
2023/06/07 12:22:07;;;;;;;6.57;3.10;;;30.40;65.90;;;;;;4989065;28;20205;-74
2023/06/07 12:24:39;;;;;;;5.13;2.88;;;30.40;65.90;;;;;;4980350;28;20255;-75
2023/06/07 12:27:06;;;;;;;3.50;3.15;;;30.50;65.70;;;;;;5007888;28;20722;-75
2023/06/07 12:29:33;;;;;;;4.57;2.97;;;30.70;65.60;;;;;;5008170;28;20299;-75
2023/06/07 12:32:03;;;;;;;7.43;3.20;;;30.80;64.60;;;;;;5007703;28;20851;-74
2023/06/07 12:34:32;;;;;;;7.28;2.90;;;31.00;65.50;;;;;;5007644;28;20209;-74
2023/06/07 12:36:59;;;;;;;5.82;2.67;;;31.20;65.70;;;;;;5007936;28;20626;-74
2023/06/07 12:39:28;;;;;;;4.88;3.00;;;31.40;65.40;;;;;;5007614;28;20926;-74
2023/06/07 12:41:55;;;;;;;5.22;3.30;;;31.50;63.60;;;;;;5008513;28;20217;-74
2023/06/07 12:44:23;;;;;;;6.97;2.63;;;31.50;64.20;;;;;;5008447;28;20339;-74
2023/06/07 12:46:50;;;;;;;3.13;2.92;;;31.50;64.80;;;;;;5007782;28;20320;-74
2023/06/07 12:49:19;;;;;;;4.10;3.05;;;31.50;65.00;;;;;;4988923;28;20216;-74
2023/06/07 12:51:46;;;;;;;6.05;3.42;;;31.60;64.40;;;;;;4988113;28;20582;-74